Bandara Internasional Osaka, Jepang

07:45 PM JST on Desember 10, 2016 (GMT +0900)
5th Avenue | | Change Station

Elev 39 ft 34.82 °N, 135.57 °E | Updated 2 minutes ago

Mendung Sebagian
Mendung Sebagian
45.5 °F
Feels Like 46 °F
N
2.5
Angin Variable Angin from Arah Timur Laut
Gusts 5.6 mph

Siang Ini
High -- | Low -- °F
--% Chance of Precip.
Yesterday
High -- | Low -- °F
Precip. -- Inch
Tekanan 30.15 Inch
Jarak Pandang 6.2 Mil
Awan Few 2500 ft
Angin Dingin 46 °F
Titik Embun 34 °F
Kelembaban 65%
Rainfall 0.00 Inch
Snow Depth Not available.
6:54 AM 4:46 PM
Waxing Gibbous, 82% visible
METAR RJOO 101000Z VRB02KT 9999 FEW025 SCT/// 06/M01 Q1021 RMK 1CU025 A3017
Tekanan 30.15 Inch
Jarak Pandang 6.2 Mil
Awan Few 2500 ft
Angin Dingin 46 °F
Titik Embun 34 °F
Kelembaban 65%
Rainfall 0.00 Inch
Snow Depth Not available.
6:54 AM 4:46 PM
Waxing Gibbous, 82% visible
METAR RJOO 101000Z VRB02KT 9999 FEW025 SCT/// 06/M01 Q1021 RMK 1CU025 A3017

10-Day Weather Forecast

No radar image for this location.
×

Almanac

Astronomi

Dec. 10, 2016 Rise Set
Actual Time
Civil Twilight
Nautical Twilight
Astronomical Twilight
Moon
Length Of Visible Light
Lama Satu Hari
Tomorrow will be .
, % of the Moon is Illuminated

Today's Extremes

Country Highs Country Lows

Community

WunderPhotos

Upload Photos

1,956,536 photos uploaded!

WunderBlog® & News

Nearby

Air Quality

  Air Quality AQ Index Pollutant
Not available.

Snow Depth

Station Depth Elevation

Earthquake Activity

City Distance Mag. Time & Date
Minimum magnitude displayed is 2.5.

Coastal Water Temperatures

Lokasi Temperatur

Stations

Nearby Weather Stations

Station Location Temp Angin Dingin Titik Embun Kelembaban Angin Precip. Elev Telah Diperbaharui Type